sensor_id;sensor_type;location;lat;lon;timestamp;temperature;humidity
46416;DHT22;32620;51.704;7.822;2023-04-02T00:06:34;6.30;99.90
46416;DHT22;32620;51.704;7.822;2023-04-02T00:09:23;6.20;99.90
46416;DHT22;32620;51.704;7.822;2023-04-02T00:11:51;6.10;99.90
46416;DHT22;32620;51.704;7.822;2023-04-02T00:14:34;6.10;99.90
46416;DHT22;32620;51.704;7.822;2023-04-02T00:17:03;6.00;99.90
46416;DHT22;32620;51.704;7.822;2023-04-02T00:19:40;6.00;99.90
46416;DHT22;32620;51.704;7.822;2023-04-02T00:22:13;6.00;99.90
46416;DHT22;32620;51.704;7.822;2023-04-02T00:24:40;6.00;99.90
46416;DHT22;32620;51.704;7.822;2023-04-02T00:27:10;6.00;99.90
46416;DHT22;32620;51.704;7.822;2023-04-02T00:29:44;5.90;99.90
46416;DHT22;32620;51.704;7.822;2023-04-02T00:32:16;5.90;99.90
46416;DHT22;32620;51.704;7.822;2023-04-02T00:34:42;6.00;99.90
46416;DHT22;32620;51.704;7.822;2023-04-02T00:37:17;5.90;99.90
46416;DHT22;32620;51.704;7.822;2023-04-02T00:39:50;5.90;99.90
46416;DHT22;32620;51.704;7.822;2023-04-02T00:42:17;5.90;99.90
46416;DHT22;32620;51.704;7.822;2023-04-02T00:44:44;5.90;99.90
46416;DHT22;32620;51.704;7.822;2023-04-02T00:47:22;5.90;99.90
46416;DHT22;32620;51.704;7.822;2023-04-02T00:49:57;5.80;99.90
46416;DHT22;32620;51.704;7.822;2023-04-02T00:52:27;5.80;99.90
46416;DHT22;32620;51.704;7.822;2023-04-02T00:55:02;5.70;99.90
46416;DHT22;32620;51.704;7.822;2023-04-02T00:57:29;5.70;99.90
46416;DHT22;32620;51.704;7.822;2023-04-02T00:59:59;5.70;99.90
46416;DHT22;32620;51.704;7.822;2023-04-02T01:02:30;5.70;99.90
46416;DHT22;32620;51.704;7.822;2023-04-02T01:05:01;5.70;99.90
46416;DHT22;32620;51.704;7.822;2023-04-02T01:10:50;5.60;99.90
46416;DHT22;32620;51.704;7.822;2023-04-02T01:13:43;5.60;99.90
46416;DHT22;32620;51.704;7.822;2023-04-02T01:22:22;5.50;99.90
46416;DHT22;32620;51.704;7.822;2023-04-02T01:24:50;5.50;99.90
46416;DHT22;32620;51.704;7.822;2023-04-02T01:27:21;5.50;99.90
46416;DHT22;32620;51.704;7.822;2023-04-02T01:29:54;5.50;99.90
46416;DHT22;32620;51.704;7.822;2023-04-02T01:32:23;5.40;99.90
46416;DHT22;32620;51.704;7.822;2023-04-02T01:34:50;5.40;99.90
46416;DHT22;32620;51.704;7.822;2023-04-02T01:37:45;5.40;99.90
46416;DHT22;32620;51.704;7.822;2023-04-02T01:40:38;5.30;99.90
46416;DHT22;32620;51.704;7.822;2023-04-02T01:43:16;5.30;99.90
46416;DHT22;32620;51.704;7.822;2023-04-02T01:45:45;5.20;99.90
46416;DHT22;32620;51.704;7.822;2023-04-02T01:48:17;5.20;99.90
46416;DHT22;32620;51.704;7.822;2023-04-02T01:50:45;5.10;99.90
46416;DHT22;32620;51.704;7.822;2023-04-02T01:53:14;5.10;99.90
46416;DHT22;32620;51.704;7.822;2023-04-02T01:56:04;5.10;99.90
46416;DHT22;32620;51.704;7.822;2023-04-02T01:58:32;5.10;99.90
46416;DHT22;32620;51.704;7.822;2023-04-02T02:01:01;5.10;99.90
46416;DHT22;32620;51.704;7.822;2023-04-02T02:03:28;5.10;99.90
46416;DHT22;32620;51.704;7.822;2023-04-02T02:05:54;5.10;99.90
46416;DHT22;32620;51.704;7.822;2023-04-02T02:08:43;5.00;99.90
46416;DHT22;32620;51.704;7.822;2023-04-02T02:11:16;5.10;99.90
46416;DHT22;32620;51.704;7.822;2023-04-02T02:14:08;5.10;99.90
46416;DHT22;32620;51.704;7.822;2023-04-02T02:16:37;5.10;99.90
46416;DHT22;32620;51.704;7.822;2023-04-02T02:19:17;5.00;99.90
46416;DHT22;32620;51.704;7.822;2023-04-02T02:21:48;5.00;99.90
46416;DHT22;32620;51.704;7.822;2023-04-02T02:24:26;5.00;99.90
46416;DHT22;32620;51.704;7.822;2023-04-02T02:30:03;5.10;99.90
46416;DHT22;32620;51.704;7.822;2023-04-02T02:32:31;5.10;99.90
46416;DHT22;32620;51.704;7.822;2023-04-02T02:35:19;5.10;99.90
46416;DHT22;32620;51.704;7.822;2023-04-02T02:37:51;5.10;99.90
46416;DHT22;32620;51.704;7.822;2023-04-02T02:40:26;5.00;99.90
46416;DHT22;32620;51.704;7.822;2023-04-02T02:42:56;5.00;99.90
46416;DHT22;32620;51.704;7.822;2023-04-02T02:45:26;4.90;99.90
46416;DHT22;32620;51.704;7.822;2023-04-02T02:47:53;4.90;99.90
46416;DHT22;32620;51.704;7.822;2023-04-02T02:50:23;4.90;99.90
46416;DHT22;32620;51.704;7.822;2023-04-02T02:52:53;4.80;99.90
46416;DHT22;32620;51.704;7.822;2023-04-02T02:55:23;4.80;99.90
46416;DHT22;32620;51.704;7.822;2023-04-02T02:57:56;4.90;99.90
46416;DHT22;32620;51.704;7.822;2023-04-02T03:00:24;4.90;99.90
46416;DHT22;32620;51.704;7.822;2023-04-02T03:02:50;4.80;99.90
46416;DHT22;32620;51.704;7.822;2023-04-02T03:05:20;4.80;99.90
46416;DHT22;32620;51.704;7.822;2023-04-02T03:07:48;4.70;99.90
46416;DHT22;32620;51.704;7.822;2023-04-02T03:10:19;4.70;99.90
46416;DHT22;32620;51.704;7.822;2023-04-02T03:12:55;4.70;99.90
46416;DHT22;32620;51.704;7.822;2023-04-02T03:16:09;4.70;99.90
46416;DHT22;32620;51.704;7.822;2023-04-02T03:18:26;4.70;99.90
46416;DHT22;32620;51.704;7.822;2023-04-02T03:20:59;4.70;99.90
46416;DHT22;32620;51.704;7.822;2023-04-02T03:23:44;4.70;99.90
46416;DHT22;32620;51.704;7.822;2023-04-02T03:26:18;4.70;99.90
46416;DHT22;32620;51.704;7.822;2023-04-02T03:28:51;4.70;99.90
46416;DHT22;32620;51.704;7.822;2023-04-02T03:31:25;4.70;99.90
46416;DHT22;32620;51.704;7.822;2023-04-02T03:33:58;4.60;99.90
46416;DHT22;32620;51.704;7.822;2023-04-02T03:36:37;4.70;99.90
46416;DHT22;32620;51.704;7.822;2023-04-02T03:39:13;4.60;99.90
46416;DHT22;32620;51.704;7.822;2023-04-02T03:41:43;4.60;99.90
46416;DHT22;32620;51.704;7.822;2023-04-02T03:44:20;4.60;99.90
46416;DHT22;32620;51.704;7.822;2023-04-02T03:46:52;4.50;99.90
46416;DHT22;32620;51.704;7.822;2023-04-02T03:49:35;4.60;99.90
46416;DHT22;32620;51.704;7.822;2023-04-02T03:52:10;4.50;99.90
46416;DHT22;32620;51.704;7.822;2023-04-02T03:54:38;4.40;99.90
46416;DHT22;32620;51.704;7.822;2023-04-02T03:57:04;4.40;99.90
46416;DHT22;32620;51.704;7.822;2023-04-02T03:59:40;4.40;99.90
46416;DHT22;32620;51.704;7.822;2023-04-02T04:02:14;4.40;99.90
46416;DHT22;32620;51.704;7.822;2023-04-02T04:04:44;4.40;99.90
46416;DHT22;32620;51.704;7.822;2023-04-02T04:07:20;4.40;99.90
46416;DHT22;32620;51.704;7.822;2023-04-02T04:09:48;4.40;99.90
46416;DHT22;32620;51.704;7.822;2023-04-02T04:12:33;4.40;99.90
46416;DHT22;32620;51.704;7.822;2023-04-02T04:15:08;4.40;99.90
46416;DHT22;32620;51.704;7.822;2023-04-02T04:17:52;4.30;99.90
46416;DHT22;32620;51.704;7.822;2023-04-02T04:20:23;4.30;99.90
46416;DHT22;32620;51.704;7.822;2023-04-02T04:22:50;4.30;99.90
46416;DHT22;32620;51.704;7.822;2023-04-02T04:25:25;4.30;99.90
46416;DHT22;32620;51.704;7.822;2023-04-02T04:28:02;4.20;99.90
46416;DHT22;32620;51.704;7.822;2023-04-02T04:33:40;4.30;99.90
46416;DHT22;32620;51.704;7.822;2023-04-02T04:36:19;4.20;99.90
46416;DHT22;32620;51.704;7.822;2023-04-02T04:38:52;4.10;99.90
46416;DHT22;32620;51.704;7.822;2023-04-02T04:41:23;4.10;99.90
46416;DHT22;32620;51.704;7.822;2023-04-02T04:46:41;4.10;99.90
46416;DHT22;32620;51.704;7.822;2023-04-02T04:49:15;4.00;99.90
46416;DHT22;32620;51.704;7.822;2023-04-02T04:52:04;4.00;99.90
46416;DHT22;32620;51.704;7.822;2023-04-02T04:54:36;4.10;99.90
46416;DHT22;32620;51.704;7.822;2023-04-02T04:57:05;4.00;99.90
46416;DHT22;32620;51.704;7.822;2023-04-02T04:59:51;4.00;99.90
46416;DHT22;32620;51.704;7.822;2023-04-02T05:02:24;3.90;99.90
46416;DHT22;32620;51.704;7.822;2023-04-02T05:04:51;4.00;99.90
46416;DHT22;32620;51.704;7.822;2023-04-02T05:07:26;4.10;99.90
46416;DHT22;32620;51.704;7.822;2023-04-02T05:13:04;4.00;99.90
46416;DHT22;32620;51.704;7.822;2023-04-02T05:15:38;3.90;99.90
46416;DHT22;32620;51.704;7.822;2023-04-02T05:18:30;3.90;99.90
46416;DHT22;32620;51.704;7.822;2023-04-02T05:21:06;3.80;99.90
46416;DHT22;32620;51.704;7.822;2023-04-02T05:23:37;3.80;99.90
46416;DHT22;32620;51.704;7.822;2023-04-02T05:26:10;3.90;99.90
46416;DHT22;32620;51.704;7.822;2023-04-02T05:28:56;3.80;99.90
46416;DHT22;32620;51.704;7.822;2023-04-02T05:31:29;3.80;99.90
46416;DHT22;32620;51.704;7.822;2023-04-02T05:34:00;3.90;99.90
46416;DHT22;32620;51.704;7.822;2023-04-02T05:36:27;3.80;99.90
46416;DHT22;32620;51.704;7.822;2023-04-02T05:38:54;3.80;99.90
46416;DHT22;32620;51.704;7.822;2023-04-02T05:41:25;3.80;99.90
46416;DHT22;32620;51.704;7.822;2023-04-02T05:44:02;3.90;99.90
46416;DHT22;32620;51.704;7.822;2023-04-02T05:46:34;3.80;99.90
46416;DHT22;32620;51.704;7.822;2023-04-02T05:49:05;3.90;99.90
46416;DHT22;32620;51.704;7.822;2023-04-02T05:51:40;3.80;99.90
46416;DHT22;32620;51.704;7.822;2023-04-02T05:54:16;3.90;99.90
46416;DHT22;32620;51.704;7.822;2023-04-02T05:56:45;3.90;99.90
46416;DHT22;32620;51.704;7.822;2023-04-02T05:59:19;3.80;99.90
46416;DHT22;32620;51.704;7.822;2023-04-02T06:02:11;3.80;99.90
46416;DHT22;32620;51.704;7.822;2023-04-02T06:04:45;3.80;99.90
46416;DHT22;32620;51.704;7.822;2023-04-02T06:07:19;3.80;99.90
46416;DHT22;32620;51.704;7.822;2023-04-02T06:09:52;3.80;99.90
46416;DHT22;32620;51.704;7.822;2023-04-02T06:12:27;3.80;99.90
46416;DHT22;32620;51.704;7.822;2023-04-02T06:14:54;3.80;99.90
46416;DHT22;32620;51.704;7.822;2023-04-02T06:17:21;3.80;98.20
46416;DHT22;32620;51.704;7.822;2023-04-02T06:19:47;3.80;97.80
46416;DHT22;32620;51.704;7.822;2023-04-02T06:22:35;3.80;96.90
46416;DHT22;32620;51.704;7.822;2023-04-02T06:25:24;3.80;98.00
46416;DHT22;32620;51.704;7.822;2023-04-02T06:27:52;3.80;96.20
46416;DHT22;32620;51.704;7.822;2023-04-02T06:30:24;3.80;97.60
46416;DHT22;32620;51.704;7.822;2023-04-02T06:32:52;3.80;94.20
46416;DHT22;32620;51.704;7.822;2023-04-02T06:35:18;3.70;92.40
46416;DHT22;32620;51.704;7.822;2023-04-02T06:37:45;3.80;92.80
46416;DHT22;32620;51.704;7.822;2023-04-02T06:40:48;3.80;92.90
46416;DHT22;32620;51.704;7.822;2023-04-02T06:43:27;3.80;98.10
46416;DHT22;32620;51.704;7.822;2023-04-02T06:45:59;3.80;92.20
46416;DHT22;32620;51.704;7.822;2023-04-02T06:48:27;3.80;93.00
46416;DHT22;32620;51.704;7.822;2023-04-02T06:50:56;3.80;90.00
46416;DHT22;32620;51.704;7.822;2023-04-02T06:53:28;3.90;90.80
46416;DHT22;32620;51.704;7.822;2023-04-02T06:56:03;3.90;93.70
46416;DHT22;32620;51.704;7.822;2023-04-02T06:58:29;3.90;88.00
46416;DHT22;32620;51.704;7.822;2023-04-02T07:00:55;3.90;88.20
46416;DHT22;32620;51.704;7.822;2023-04-02T07:03:24;3.80;76.80
46416;DHT22;32620;51.704;7.822;2023-04-02T07:05:51;3.80;79.10
46416;DHT22;32620;51.704;7.822;2023-04-02T07:08:17;3.80;83.50
46416;DHT22;32620;51.704;7.822;2023-04-02T07:10:43;3.80;73.70
46416;DHT22;32620;51.704;7.822;2023-04-02T07:13:14;3.80;81.40
46416;DHT22;32620;51.704;7.822;2023-04-02T07:15:41;3.80;84.80
46416;DHT22;32620;51.704;7.822;2023-04-02T07:18:40;3.90;66.20
46416;DHT22;32620;51.704;7.822;2023-04-02T07:20:54;4.00;70.00
46416;DHT22;32620;51.704;7.822;2023-04-02T07:23:20;4.00;73.60
46416;DHT22;32620;51.704;7.822;2023-04-02T07:25:49;4.10;72.50
46416;DHT22;32620;51.704;7.822;2023-04-02T07:28:15;4.10;63.30
46416;DHT22;32620;51.704;7.822;2023-04-02T07:30:42;4.10;74.40
46416;DHT22;32620;51.704;7.822;2023-04-02T07:33:13;4.10;73.90
46416;DHT22;32620;51.704;7.822;2023-04-02T07:35:39;4.10;59.00
46416;DHT22;32620;51.704;7.822;2023-04-02T07:38:05;4.10;58.40
46416;DHT22;32620;51.704;7.822;2023-04-02T07:40:30;4.10;60.70
46416;DHT22;32620;51.704;7.822;2023-04-02T07:42:56;4.00;46.50
46416;DHT22;32620;51.704;7.822;2023-04-02T07:45:21;4.10;51.00
46416;DHT22;32620;51.704;7.822;2023-04-02T07:47:47;4.00;47.70
46416;DHT22;32620;51.704;7.822;2023-04-02T07:50:12;4.00;45.20
46416;DHT22;32620;51.704;7.822;2023-04-02T07:52:40;4.00;41.10
46416;DHT22;32620;51.704;7.822;2023-04-02T07:55:08;4.20;54.20
46416;DHT22;32620;51.704;7.822;2023-04-02T07:57:38;4.20;47.10
46416;DHT22;32620;51.704;7.822;2023-04-02T08:00:09;4.30;51.30
46416;DHT22;32620;51.704;7.822;2023-04-02T08:02:36;4.30;39.50
46416;DHT22;32620;51.704;7.822;2023-04-02T08:05:01;4.30;47.30
46416;DHT22;32620;51.704;7.822;2023-04-02T08:07:27;4.40;50.90
46416;DHT22;32620;51.704;7.822;2023-04-02T08:09:52;4.50;31.40
46416;DHT22;32620;51.704;7.822;2023-04-02T08:12:18;4.50;29.10
46416;DHT22;32620;51.704;7.822;2023-04-02T08:14:43;4.40;21.70
46416;DHT22;32620;51.704;7.822;2023-04-02T08:17:09;4.40;18.80
46416;DHT22;32620;51.704;7.822;2023-04-02T08:19:35;4.50;18.70
46416;DHT22;32620;51.704;7.822;2023-04-02T08:22:00;4.60;15.10
46416;DHT22;32620;51.704;7.822;2023-04-02T08:24:26;4.50;26.70
46416;DHT22;32620;51.704;7.822;2023-04-02T08:26:51;4.60;22.40
46416;DHT22;32620;51.704;7.822;2023-04-02T08:29:19;4.70;21.40
46416;DHT22;32620;51.704;7.822;2023-04-02T08:31:45;4.70;13.50
46416;DHT22;32620;51.704;7.822;2023-04-02T08:34:10;4.60;5.80
46416;DHT22;32620;51.704;7.822;2023-04-02T08:36:37;4.50;6.70
46416;DHT22;32620;51.704;7.822;2023-04-02T08:39:05;4.70;23.80
46416;DHT22;32620;51.704;7.822;2023-04-02T08:41:36;4.80;16.70
46416;DHT22;32620;51.704;7.822;2023-04-02T08:44:28;4.70;16.50
46416;DHT22;32620;51.704;7.822;2023-04-02T08:47:05;4.70;15.30
46416;DHT22;32620;51.704;7.822;2023-04-02T08:49:51;4.60;11.30
46416;DHT22;32620;51.704;7.822;2023-04-02T08:52:37;4.80;25.30
46416;DHT22;32620;51.704;7.822;2023-04-02T08:55:12;4.70;22.00
46416;DHT22;32620;51.704;7.822;2023-04-02T08:57:50;4.60;4.30
46416;DHT22;32620;51.704;7.822;2023-04-02T09:00:34;4.60;4.20
46416;DHT22;32620;51.704;7.822;2023-04-02T09:03:08;4.50;1.00
46416;DHT22;32620;51.704;7.822;2023-04-02T09:05:38;4.60;1.00
46416;DHT22;32620;51.704;7.822;2023-04-02T09:08:20;4.70;1.00
46416;DHT22;32620;51.704;7.822;2023-04-02T09:11:08;4.80;1.00
46416;DHT22;32620;51.704;7.822;2023-04-02T09:13:37;4.80;1.00
46416;DHT22;32620;51.704;7.822;2023-04-02T09:16:10;4.80;1.00
46416;DHT22;32620;51.704;7.822;2023-04-02T09:18:37;4.90;1.00
46416;DHT22;32620;51.704;7.822;2023-04-02T09:23:52;4.80;1.00
46416;DHT22;32620;51.704;7.822;2023-04-02T09:26:22;4.90;1.00
46416;DHT22;32620;51.704;7.822;2023-04-02T09:28:52;4.90;1.00
46416;DHT22;32620;51.704;7.822;2023-04-02T09:31:23;5.00;1.00
46416;DHT22;32620;51.704;7.822;2023-04-02T09:33:52;5.00;1.00
46416;DHT22;32620;51.704;7.822;2023-04-02T09:36:38;5.00;1.00
46416;DHT22;32620;51.704;7.822;2023-04-02T09:39:19;4.90;1.00
46416;DHT22;32620;51.704;7.822;2023-04-02T09:41:45;4.80;1.00
46416;DHT22;32620;51.704;7.822;2023-04-02T09:44:27;4.80;1.00
46416;DHT22;32620;51.704;7.822;2023-04-02T09:46:57;4.90;1.00
46416;DHT22;32620;51.704;7.822;2023-04-02T09:49:26;4.80;1.00
46416;DHT22;32620;51.704;7.822;2023-04-02T09:52:21;4.90;1.00
46416;DHT22;32620;51.704;7.822;2023-04-02T09:57:47;5.20;1.00
46416;DHT22;32620;51.704;7.822;2023-04-02T10:00:21;5.20;1.00
46416;DHT22;32620;51.704;7.822;2023-04-02T10:03:02;5.20;1.00
46416;DHT22;32620;51.704;7.822;2023-04-02T10:05:29;5.20;1.00
46416;DHT22;32620;51.704;7.822;2023-04-02T10:08:08;5.40;1.00
46416;DHT22;32620;51.704;7.822;2023-04-02T10:10:40;5.30;1.00
46416;DHT22;32620;51.704;7.822;2023-04-02T10:16:26;5.40;1.00
46416;DHT22;32620;51.704;7.822;2023-04-02T10:19:05;5.40;1.00
46416;DHT22;32620;51.704;7.822;2023-04-02T10:21:34;5.40;1.00
46416;DHT22;32620;51.704;7.822;2023-04-02T10:24:01;5.40;1.00
46416;DHT22;32620;51.704;7.822;2023-04-02T10:26:47;5.50;1.00
46416;DHT22;32620;51.704;7.822;2023-04-02T10:32:23;5.70;1.00
46416;DHT22;32620;51.704;7.822;2023-04-02T10:34:57;5.60;99.90
46416;DHT22;32620;51.704;7.822;2023-04-02T10:40:25;5.60;1.00
46416;DHT22;32620;51.704;7.822;2023-04-02T10:43:21;5.80;1.00
46416;DHT22;32620;51.704;7.822;2023-04-02T10:48:53;6.10;99.90
46416;DHT22;32620;51.704;7.822;2023-04-02T10:51:37;6.10;99.90
46416;DHT22;32620;51.704;7.822;2023-04-02T10:54:50;5.90;99.90
46416;DHT22;32620;51.704;7.822;2023-04-02T10:57:13;6.00;99.90
46416;DHT22;32620;51.704;7.822;2023-04-02T10:59:47;5.80;99.90
46416;DHT22;32620;51.704;7.822;2023-04-02T11:02:31;6.00;99.90
46416;DHT22;32620;51.704;7.822;2023-04-02T11:05:02;6.20;99.90
46416;DHT22;32620;51.704;7.822;2023-04-02T11:07:42;6.10;99.90
46416;DHT22;32620;51.704;7.822;2023-04-02T11:10:14;6.00;99.90
46416;DHT22;32620;51.704;7.822;2023-04-02T11:12:49;6.00;99.90
46416;DHT22;32620;51.704;7.822;2023-04-02T11:15:17;6.10;99.90
46416;DHT22;32620;51.704;7.822;2023-04-02T11:17:44;6.10;99.90
46416;DHT22;32620;51.704;7.822;2023-04-02T11:23:27;6.40;99.90
46416;DHT22;32620;51.704;7.822;2023-04-02T11:26:44;6.50;99.90
46416;DHT22;32620;51.704;7.822;2023-04-02T11:29:32;6.60;99.90
46416;DHT22;32620;51.704;7.822;2023-04-02T11:31:48;6.70;14.00
46416;DHT22;32620;51.704;7.822;2023-04-02T11:35:37;6.90;99.90
46416;DHT22;32620;51.704;7.822;2023-04-02T11:37:41;6.80;1.00
46416;DHT22;32620;51.704;7.822;2023-04-02T11:42:49;6.90;99.90
46416;DHT22;32620;51.704;7.822;2023-04-02T11:50:38;7.20;1.00
46416;DHT22;32620;51.704;7.822;2023-04-02T11:53:24;7.30;1.00
46416;DHT22;32620;51.704;7.822;2023-04-02T12:02:07;8.00;1.00
46416;DHT22;32620;51.704;7.822;2023-04-02T12:10:31;8.90;1.00
46416;DHT22;32620;51.704;7.822;2023-04-02T12:12:58;8.50;99.90
46416;DHT22;32620;51.704;7.822;2023-04-02T12:18:08;8.20;7.50
46416;DHT22;32620;51.704;7.822;2023-04-02T12:20:35;8.90;99.90
46416;DHT22;32620;51.704;7.822;2023-04-02T12:23:02;9.00;86.20
46416;DHT22;32620;51.704;7.822;2023-04-02T12:25:33;8.90;1.00
46416;DHT22;32620;51.704;7.822;2023-04-02T12:28:20;8.80;99.90
46416;DHT22;32620;51.704;7.822;2023-04-02T12:30:47;8.80;96.70
46416;DHT22;32620;51.704;7.822;2023-04-02T12:33:25;8.60;54.30
46416;DHT22;32620;51.704;7.822;2023-04-02T12:35:56;8.60;99.90
46416;DHT22;32620;51.704;7.822;2023-04-02T12:38:25;8.50;99.90
46416;DHT22;32620;51.704;7.822;2023-04-02T12:40:54;8.40;1.00
46416;DHT22;32620;51.704;7.822;2023-04-02T12:43:24;8.10;1.00
46416;DHT22;32620;51.704;7.822;2023-04-02T12:45:53;7.70;6.30
46416;DHT22;32620;51.704;7.822;2023-04-02T12:48:20;7.40;99.90
46416;DHT22;32620;51.704;7.822;2023-04-02T12:50:46;7.60;1.00
46416;DHT22;32620;51.704;7.822;2023-04-02T12:53:19;8.20;99.90
46416;DHT22;32620;51.704;7.822;2023-04-02T12:55:47;8.40;99.90
46416;DHT22;32620;51.704;7.822;2023-04-02T12:58:37;8.40;99.90
46416;DHT22;32620;51.704;7.822;2023-04-02T13:01:19;8.70;99.90
46416;DHT22;32620;51.704;7.822;2023-04-02T13:04:08;8.60;99.90
46416;DHT22;32620;51.704;7.822;2023-04-02T13:06:37;8.70;99.90
46416;DHT22;32620;51.704;7.822;2023-04-02T13:09:05;8.70;1.00
46416;DHT22;32620;51.704;7.822;2023-04-02T13:14:19;8.90;1.00
46416;DHT22;32620;51.704;7.822;2023-04-02T13:16:46;8.60;1.00
46416;DHT22;32620;51.704;7.822;2023-04-02T13:19:32;8.30;1.00
46416;DHT22;32620;51.704;7.822;2023-04-02T13:22:00;8.10;96.40
46416;DHT22;32620;51.704;7.822;2023-04-02T13:24:31;8.30;1.00
46416;DHT22;32620;51.704;7.822;2023-04-02T13:26:59;8.40;1.00
46416;DHT22;32620;51.704;7.822;2023-04-02T13:29:34;8.30;1.00
46416;DHT22;32620;51.704;7.822;2023-04-02T13:32:02;8.40;71.20
46416;DHT22;32620;51.704;7.822;2023-04-02T13:34:28;8.00;1.00
46416;DHT22;32620;51.704;7.822;2023-04-02T13:36:54;7.90;1.00
46416;DHT22;32620;51.704;7.822;2023-04-02T13:39:20;8.00;99.90
46416;DHT22;32620;51.704;7.822;2023-04-02T13:41:56;8.10;99.90
46416;DHT22;32620;51.704;7.822;2023-04-02T13:44:24;7.90;1.00
46416;DHT22;32620;51.704;7.822;2023-04-02T13:46:51;8.10;99.90
46416;DHT22;32620;51.704;7.822;2023-04-02T13:49:17;8.30;1.00
46416;DHT22;32620;51.704;7.822;2023-04-02T13:51:46;8.30;1.00
46416;DHT22;32620;51.704;7.822;2023-04-02T13:54:18;8.10;99.90
46416;DHT22;32620;51.704;7.822;2023-04-02T13:56:44;7.80;99.90
46416;DHT22;32620;51.704;7.822;2023-04-02T13:59:11;7.70;99.90
46416;DHT22;32620;51.704;7.822;2023-04-02T14:01:37;7.90;1.00
46416;DHT22;32620;51.704;7.822;2023-04-02T14:04:04;8.30;99.90
46416;DHT22;32620;51.704;7.822;2023-04-02T14:07:49;8.50;99.90
46416;DHT22;32620;51.704;7.822;2023-04-02T14:12:34;8.70;99.90
46416;DHT22;32620;51.704;7.822;2023-04-02T14:24:19;8.70;99.90
46416;DHT22;32620;51.704;7.822;2023-04-02T14:27:04;9.00;1.00
46416;DHT22;32620;51.704;7.822;2023-04-02T14:29:46;9.00;1.00
46416;DHT22;32620;51.704;7.822;2023-04-02T14:32:48;8.90;94.90
46416;DHT22;32620;51.704;7.822;2023-04-02T14:35:23;9.00;32.30
46416;DHT22;32620;51.704;7.822;2023-04-02T14:38:15;8.60;1.00
46416;DHT22;32620;51.704;7.822;2023-04-02T14:40:47;9.00;99.90
46416;DHT22;32620;51.704;7.822;2023-04-02T14:43:24;8.70;99.90
46416;DHT22;32620;51.704;7.822;2023-04-02T14:46:07;8.40;99.90
46416;DHT22;32620;51.704;7.822;2023-04-02T14:51:43;8.30;99.90
46416;DHT22;32620;51.704;7.822;2023-04-02T14:54:34;8.20;99.90
46416;DHT22;32620;51.704;7.822;2023-04-02T14:57:14;8.00;99.90
46416;DHT22;32620;51.704;7.822;2023-04-02T15:00:05;8.30;99.90
46416;DHT22;32620;51.704;7.822;2023-04-02T15:05:43;8.70;99.90
46416;DHT22;32620;51.704;7.822;2023-04-02T15:08:46;8.30;99.90
46416;DHT22;32620;51.704;7.822;2023-04-02T15:14:18;8.20;99.90
46416;DHT22;32620;51.704;7.822;2023-04-02T15:16:44;8.40;99.90
46416;DHT22;32620;51.704;7.822;2023-04-02T15:19:14;8.30;99.90
46416;DHT22;32620;51.704;7.822;2023-04-02T15:21:53;8.20;99.90
46416;DHT22;32620;51.704;7.822;2023-04-02T15:28:27;8.00;99.90
46416;DHT22;32620;51.704;7.822;2023-04-02T15:30:36;8.00;99.90
46416;DHT22;32620;51.704;7.822;2023-04-02T15:33:31;8.00;99.90
46416;DHT22;32620;51.704;7.822;2023-04-02T15:42:45;8.00;99.90
46416;DHT22;32620;51.704;7.822;2023-04-02T15:48:06;7.50;99.90
46416;DHT22;32620;51.704;7.822;2023-04-02T15:53:36;7.80;99.90
46416;DHT22;32620;51.704;7.822;2023-04-02T15:56:25;7.90;99.90
46416;DHT22;32620;51.704;7.822;2023-04-02T16:02:06;7.90;99.90
46416;DHT22;32620;51.704;7.822;2023-04-02T16:05:17;7.80;99.90
46416;DHT22;32620;51.704;7.822;2023-04-02T16:10:45;7.70;99.90
46416;DHT22;32620;51.704;7.822;2023-04-02T16:13:18;7.90;99.90
46416;DHT22;32620;51.704;7.822;2023-04-02T16:21:33;7.90;99.90
46416;DHT22;32620;51.704;7.822;2023-04-02T16:24:01;8.00;99.90
46416;DHT22;32620;51.704;7.822;2023-04-02T16:26:48;8.00;99.90
46416;DHT22;32620;51.704;7.822;2023-04-02T16:29:40;7.90;99.90
46416;DHT22;32620;51.704;7.822;2023-04-02T16:35:06;7.80;99.90
46416;DHT22;32620;51.704;7.822;2023-04-02T16:37:44;7.80;99.90
46416;DHT22;32620;51.704;7.822;2023-04-02T16:40:29;7.90;99.90
46416;DHT22;32620;51.704;7.822;2023-04-02T16:43:26;7.80;99.90
46416;DHT22;32620;51.704;7.822;2023-04-02T16:48:56;7.70;99.90
46416;DHT22;32620;51.704;7.822;2023-04-02T16:54:08;7.70;99.90
46416;DHT22;32620;51.704;7.822;2023-04-02T17:03:42;7.40;99.90
46416;DHT22;32620;51.704;7.822;2023-04-02T17:05:57;7.30;99.90
46416;DHT22;32620;51.704;7.822;2023-04-02T17:08:29;7.30;99.90
46416;DHT22;32620;51.704;7.822;2023-04-02T17:11:01;7.30;99.90
46416;DHT22;32620;51.704;7.822;2023-04-02T17:14:12;7.30;1.00
46416;DHT22;32620;51.704;7.822;2023-04-02T17:16:49;7.30;1.00
46416;DHT22;32620;51.704;7.822;2023-04-02T17:19:15;7.30;1.00
46416;DHT22;32620;51.704;7.822;2023-04-02T17:21:45;7.20;1.00
46416;DHT22;32620;51.704;7.822;2023-04-02T17:24:20;7.30;1.00
46416;DHT22;32620;51.704;7.822;2023-04-02T17:26:51;7.20;1.00
46416;DHT22;32620;51.704;7.822;2023-04-02T17:29:22;7.10;1.00
46416;DHT22;32620;51.704;7.822;2023-04-02T17:31:51;7.10;73.70
46416;DHT22;32620;51.704;7.822;2023-04-02T17:34:18;7.10;1.00
46416;DHT22;32620;51.704;7.822;2023-04-02T17:37:41;7.00;61.50
46416;DHT22;32620;51.704;7.822;2023-04-02T17:40:16;7.00;26.80
46416;DHT22;32620;51.704;7.822;2023-04-02T17:45:48;7.00;99.90
46416;DHT22;32620;51.704;7.822;2023-04-02T17:48:53;7.00;99.90
46416;DHT22;32620;51.704;7.822;2023-04-02T17:51:44;6.90;99.90
46416;DHT22;32620;51.704;7.822;2023-04-02T18:05:53;6.60;99.90
46416;DHT22;32620;51.704;7.822;2023-04-02T18:08:38;6.50;1.00
46416;DHT22;32620;51.704;7.822;2023-04-02T18:11:27;6.40;60.60
46416;DHT22;32620;51.704;7.822;2023-04-02T18:13:59;6.30;99.90
46416;DHT22;32620;51.704;7.822;2023-04-02T18:16:36;6.30;1.00
46416;DHT22;32620;51.704;7.822;2023-04-02T18:19:17;6.20;1.00
46416;DHT22;32620;51.704;7.822;2023-04-02T18:22:17;6.20;1.00
46416;DHT22;32620;51.704;7.822;2023-04-02T18:25:17;6.20;99.90
46416;DHT22;32620;51.704;7.822;2023-04-02T18:30:39;5.90;1.00
46416;DHT22;32620;51.704;7.822;2023-04-02T18:33:25;5.90;99.90
46416;DHT22;32620;51.704;7.822;2023-04-02T18:39:18;5.80;1.00
46416;DHT22;32620;51.704;7.822;2023-04-02T18:42:09;5.80;50.90
46416;DHT22;32620;51.704;7.822;2023-04-02T18:45:16;5.70;99.90
46416;DHT22;32620;51.704;7.822;2023-04-02T18:50:32;5.60;99.90
46416;DHT22;32620;51.704;7.822;2023-04-02T18:53:00;5.60;99.90
46416;DHT22;32620;51.704;7.822;2023-04-02T18:55:27;5.50;99.90
46416;DHT22;32620;51.704;7.822;2023-04-02T18:58:03;5.50;99.90
46416;DHT22;32620;51.704;7.822;2023-04-02T19:00:33;5.40;99.90
46416;DHT22;32620;51.704;7.822;2023-04-02T19:03:22;5.40;99.90
46416;DHT22;32620;51.704;7.822;2023-04-02T19:05:59;5.40;99.90
46416;DHT22;32620;51.704;7.822;2023-04-02T19:11:15;5.40;99.90
46416;DHT22;32620;51.704;7.822;2023-04-02T19:13:42;5.30;1.00
46416;DHT22;32620;51.704;7.822;2023-04-02T19:19:41;5.30;99.90
46416;DHT22;32620;51.704;7.822;2023-04-02T19:31:15;5.10;99.90
46416;DHT22;32620;51.704;7.822;2023-04-02T19:33:51;5.10;99.90